Time;durP1;ratioP1;P1;durP2;ratioP2;P2;SDS_P1;SDS_P2;PMS_P1;PMS_P2;Temp;Humidity;BMP_temperature;BMP_pressure;BME280_temperature;BME280_humidity;BME280_pressure;Samples;Min_cycle;Max_cycle;Signal;HPM_P1;HPM_P2
2021/12/20 00:00:27;;;;;;;21.00;12.77;;;5.00;85.70;;;;;;5133905;27;20253;-59
2021/12/20 00:02:56;;;;;;;20.25;11.43;;;5.00;86.70;;;;;;5133737;27;20281;-57
2021/12/20 00:05:23;;;;;;;20.02;12.40;;;5.10;86.70;;;;;;5132406;27;20202;-57
2021/12/20 00:07:50;;;;;;;21.05;12.35;;;5.00;86.60;;;;;;5133695;27;20202;-57
2021/12/20 00:10:18;;;;;;;22.95;12.45;;;5.10;86.80;;;;;;5133677;27;20195;-56
2021/12/20 00:12:45;;;;;;;21.25;12.40;;;5.30;86.80;;;;;;5133752;27;20205;-57
2021/12/20 00:15:13;;;;;;;20.75;11.77;;;5.30;86.40;;;;;;5133546;27;20241;-57
2021/12/20 00:17:40;;;;;;;20.50;11.05;;;5.40;86.20;;;;;;5133594;27;20202;-57
2021/12/20 00:20:08;;;;;;;22.73;12.43;;;5.10;85.00;;;;;;5132102;27;20209;-57
2021/12/20 00:22:35;;;;;;;22.05;12.77;;;5.00;86.10;;;;;;5133571;27;20293;-60
2021/12/20 00:25:02;;;;;;;22.10;12.30;;;5.10;86.40;;;;;;5133510;27;20213;-58
2021/12/20 00:27:29;;;;;;;23.23;12.35;;;5.10;86.40;;;;;;5133675;27;20635;-57
2021/12/20 00:29:56;;;;;;;21.30;12.13;;;5.10;86.00;;;;;;5133567;27;20244;-57
2021/12/20 00:32:24;;;;;;;22.17;11.77;;;5.00;85.90;;;;;;5133439;27;20317;-57
2021/12/20 00:34:51;;;;;;;21.00;12.70;;;4.70;86.10;;;;;;5132182;27;20271;-57
2021/12/20 00:40:22;;;;;;;22.88;12.10;;;4.30;87.80;;;;;;5137458;27;20206;-58
2021/12/20 00:42:51;;;;;;;19.90;11.75;;;4.50;88.30;;;;;;5137347;27;20306;-58
2021/12/20 00:45:19;;;;;;;18.40;10.50;;;4.50;87.20;;;;;;5137109;27;20721;-57
2021/12/20 00:47:48;;;;;;;20.40;11.07;;;4.30;88.20;;;;;;5137134;27;20207;-57
2021/12/20 00:50:17;;;;;;;22.92;13.20;;;4.30;88.20;;;;;;5135848;27;20240;-56
2021/12/20 00:52:46;;;;;;;23.98;13.57;;;4.50;88.40;;;;;;5137010;27;20688;-57
2021/12/20 00:55:16;;;;;;;25.85;12.77;;;4.70;88.20;;;;;;5137003;27;20219;-58
2021/12/20 00:57:42;;;;;;;23.40;12.80;;;4.50;86.70;;;;;;5136794;27;20195;-57
2021/12/20 01:00:11;;;;;;;22.92;13.25;;;4.50;87.60;;;;;;5137026;27;20201;-57
2021/12/20 01:02:38;;;;;;;27.65;14.43;;;4.60;87.70;;;;;;5136930;27;20289;-57
2021/12/20 01:05:07;;;;;;;25.95;12.98;;;4.50;87.60;;;;;;5135480;27;20217;-58
2021/12/20 01:07:34;;;;;;;21.40;11.70;;;4.40;87.30;;;;;;5136840;27;20203;-57
2021/12/20 01:10:05;;;;;;;23.58;13.40;;;4.40;87.20;;;;;;5136598;27;20234;-58
2021/12/20 01:12:41;;;;;;;26.45;13.05;;;4.40;87.80;;;;;;5136596;27;20232;-57
2021/12/20 01:15:09;;;;;;;24.77;13.80;;;4.50;88.00;;;;;;5136644;27;20608;-58
2021/12/20 01:17:36;;;;;;;25.25;14.52;;;4.40;87.40;;;;;;5136567;27;20286;-56
2021/12/20 01:20:03;;;;;;;24.98;14.27;;;4.20;88.70;;;;;;5135152;27;20203;-56
2021/12/20 01:22:32;;;;;;;32.78;14.88;;;4.10;89.00;;;;;;5136373;27;20203;-56
2021/12/20 01:24:59;;;;;;;26.10;12.73;;;4.00;89.30;;;;;;5136480;27;20285;-57
2021/12/20 01:27:25;;;;;;;24.85;12.25;;;4.10;89.10;;;;;;5136343;27;20233;-58
2021/12/20 01:29:53;;;;;;;25.80;14.23;;;4.20;89.00;;;;;;5136341;27;20566;-57
2021/12/20 01:32:19;;;;;;;29.55;15.27;;;4.40;89.10;;;;;;5136126;27;20233;-57
2021/12/20 01:34:47;;;;;;;27.00;13.85;;;4.60;88.70;;;;;;5134865;27;20234;-58
2021/12/20 01:37:15;;;;;;;24.10;13.52;;;4.80;87.90;;;;;;5136111;27;20194;-57
2021/12/20 01:39:43;;;;;;;28.10;13.43;;;4.70;86.80;;;;;;5136158;27;20680;-58
2021/12/20 01:42:16;;;;;;;22.45;12.70;;;4.70;86.70;;;;;;5136136;27;20202;-58
2021/12/20 01:44:43;;;;;;;28.90;14.40;;;4.80;87.20;;;;;;5136110;27;20250;-57
2021/12/20 01:47:10;;;;;;;23.15;13.10;;;4.90;87.30;;;;;;5135957;27;20238;-61
2021/12/20 01:49:43;;;;;;;26.10;14.30;;;4.90;86.00;;;;;;5134522;27;20230;-57
2021/12/20 01:52:14;;;;;;;22.50;12.75;;;4.70;85.80;;;;;;5135868;27;20325;-57
2021/12/20 01:54:43;;;;;;;24.02;13.68;;;4.50;86.40;;;;;;5135781;27;20219;-57
2021/12/20 01:57:10;;;;;;;24.23;13.32;;;4.40;87.30;;;;;;5135919;27;20195;-57
2021/12/20 01:59:39;;;;;;;25.25;14.00;;;4.40;87.30;;;;;;5135780;27;20195;-57
2021/12/20 02:02:06;;;;;;;22.23;13.32;;;4.20;87.40;;;;;;5135723;27;20198;-58
2021/12/20 02:04:42;;;;;;;24.67;13.18;;;4.10;88.50;;;;;;5134327;27;20294;-57
2021/12/20 02:07:19;;;;;;;24.33;12.43;;;4.20;88.70;;;;;;5135593;27;20198;-57
2021/12/20 02:09:47;;;;;;;26.20;13.23;;;4.10;88.70;;;;;;5135558;27;20206;-57
2021/12/20 02:12:14;;;;;;;22.13;12.15;;;4.00;88.80;;;;;;5135487;27;20232;-57
2021/12/20 02:14:41;;;;;;;24.52;12.45;;;4.00;89.00;;;;;;5135443;27;20290;-59
2021/12/20 02:17:08;;;;;;;22.77;12.13;;;3.90;89.00;;;;;;5135347;27;20582;-58
2021/12/20 02:19:38;;;;;;;28.15;12.05;;;4.00;89.30;;;;;;5134180;27;20306;-57
2021/12/20 02:22:07;;;;;;;25.17;13.02;;;4.10;88.60;;;;;;5135383;27;20202;-58
2021/12/20 02:24:34;;;;;;;24.75;13.00;;;4.00;88.50;;;;;;5135259;27;20203;-57
2021/12/20 02:27:01;;;;;;;25.08;13.32;;;4.00;88.90;;;;;;5135192;27;20199;-56
2021/12/20 02:29:46;;;;;;;26.90;14.13;;;4.00;88.80;;;;;;5134957;27;20740;-59
2021/12/20 02:37:43;;;;;;;29.92;15.52;;;4.20;89.40;;;;;;5134917;27;20205;-57
2021/12/20 02:40:10;;;;;;;27.85;14.15;;;4.30;88.70;;;;;;5135062;27;20248;-57
2021/12/20 02:42:40;;;;;;;28.23;14.65;;;4.30;88.30;;;;;;5134938;27;20289;-59
2021/12/20 02:45:14;;;;;;;29.10;15.10;;;4.40;88.70;;;;;;5134853;27;20538;-57
2021/12/20 02:47:42;;;;;;;31.73;14.05;;;4.50;88.30;;;;;;5134912;27;20203;-57
2021/12/20 02:50:10;;;;;;;26.25;13.95;;;4.40;87.60;;;;;;5133211;27;20238;-57
2021/12/20 02:52:37;;;;;;;25.60;12.85;;;4.40;87.60;;;;;;5134603;27;20752;-57
2021/12/20 02:55:06;;;;;;;28.10;14.63;;;4.50;87.90;;;;;;5134532;27;20233;-58
2021/12/20 02:57:35;;;;;;;27.13;13.95;;;4.70;87.50;;;;;;5134767;27;20297;-60
2021/12/20 03:00:02;;;;;;;22.15;12.65;;;4.70;86.80;;;;;;5134089;27;20213;-59
2021/12/20 03:02:28;;;;;;;22.88;12.40;;;4.70;87.20;;;;;;5134612;27;20728;-58
2021/12/20 03:04:55;;;;;;;21.95;11.52;;;4.50;86.10;;;;;;5133078;27;20290;-58
2021/12/20 03:07:26;;;;;;;25.17;12.85;;;4.40;86.80;;;;;;5134520;27;20222;-58
2021/12/20 03:09:58;;;;;;;27.25;12.48;;;4.40;87.20;;;;;;5134450;27;20382;-58
2021/12/20 03:12:29;;;;;;;23.13;12.75;;;4.50;87.50;;;;;;5134376;27;20322;-58
2021/12/20 03:15:02;;;;;;;18.25;11.75;;;4.60;86.50;;;;;;5134299;27;20245;-62
2021/12/20 03:17:29;;;;;;;22.90;12.38;;;4.60;86.30;;;;;;5134260;27;20203;-59
2021/12/20 03:19:56;;;;;;;19.77;11.20;;;4.60;85.50;;;;;;5132939;27;20199;-59
2021/12/20 03:22:23;;;;;;;20.08;11.30;;;4.50;85.40;;;;;;5134186;27;20297;-58
2021/12/20 03:24:50;;;;;;;22.30;12.60;;;4.40;85.60;;;;;;5134137;27;20202;-58
2021/12/20 03:27:16;;;;;;;24.38;12.73;;;4.40;86.30;;;;;;5134131;27;20234;-58
2021/12/20 03:29:45;;;;;;;24.83;13.00;;;4.50;87.10;;;;;;5134225;27;20206;-57
2021/12/20 03:32:12;;;;;;;21.23;11.77;;;4.60;87.00;;;;;;5134035;27;20229;-57
2021/12/20 03:34:39;;;;;;;24.17;12.60;;;4.90;87.00;;;;;;5132954;27;20202;-56
2021/12/20 03:37:05;;;;;;;24.73;12.68;;;5.00;86.50;;;;;;5134158;27;20194;-56
2021/12/20 03:39:32;;;;;;;25.38;13.23;;;5.20;86.10;;;;;;5133954;27;20198;-56
2021/12/20 03:42:00;;;;;;;23.27;13.02;;;5.30;85.60;;;;;;5133951;27;20645;-57
2021/12/20 03:44:31;;;;;;;26.08;12.95;;;5.30;85.00;;;;;;5133768;27;20202;-60
2021/12/20 03:47:00;;;;;;;26.55;13.25;;;5.40;84.60;;;;;;5133842;27;20213;-56
2021/12/20 03:49:27;;;;;;;26.92;12.80;;;5.40;84.60;;;;;;5132377;27;20238;-59
2021/12/20 03:51:54;;;;;;;29.73;13.73;;;5.40;84.50;;;;;;5133608;27;20688;-56
2021/12/20 03:54:22;;;;;;;28.02;13.30;;;5.40;84.30;;;;;;5133715;27;20223;-56
2021/12/20 03:56:48;;;;;;;24.30;11.95;;;5.20;83.70;;;;;;5133645;27;20654;-60
2021/12/20 03:59:15;;;;;;;29.02;14.35;;;5.10;84.50;;;;;;5133550;27;20371;-58
2021/12/20 04:01:42;;;;;;;27.73;13.10;;;4.90;85.00;;;;;;5133757;27;20293;-59
2021/12/20 04:04:10;;;;;;;25.92;13.05;;;4.70;86.10;;;;;;5132438;27;20383;-58
2021/12/20 04:06:37;;;;;;;26.25;13.60;;;4.70;86.70;;;;;;5133730;27;20217;-58
2021/12/20 04:09:05;;;;;;;20.88;12.27;;;4.70;86.40;;;;;;5133610;27;20624;-56
2021/12/20 04:11:32;;;;;;;24.20;12.55;;;4.90;86.70;;;;;;5134492;27;20246;-59
2021/12/20 04:13:59;;;;;;;28.90;13.80;;;4.80;86.10;;;;;;5137704;27;20206;-57
2021/12/20 04:16:26;;;;;;;23.98;12.45;;;4.90;86.50;;;;;;5137718;27;20201;-59
2021/12/20 04:18:53;;;;;;;28.73;13.93;;;5.00;86.50;;;;;;5136298;27;20759;-58
2021/12/20 04:21:22;;;;;;;22.23;12.10;;;5.00;86.20;;;;;;5137652;27;20206;-61
2021/12/20 04:23:49;;;;;;;23.60;13.18;;;5.10;85.90;;;;;;5137492;27;20547;-57
2021/12/20 04:26:16;;;;;;;23.25;13.13;;;5.20;86.00;;;;;;5137347;27;20211;-56
2021/12/20 04:28:43;;;;;;;27.13;13.40;;;5.20;85.60;;;;;;5137493;27;20615;-59
2021/12/20 04:31:10;;;;;;;28.23;13.20;;;5.30;85.70;;;;;;5137424;27;20231;-56
2021/12/20 04:33:36;;;;;;;25.45;12.82;;;5.30;85.20;;;;;;5135900;27;20266;-56
2021/12/20 04:36:04;;;;;;;20.85;12.13;;;5.30;85.40;;;;;;5137235;27;20198;-57
2021/12/20 04:38:33;;;;;;;26.63;13.15;;;5.40;85.40;;;;;;5137213;27;20277;-59
2021/12/20 04:41:00;;;;;;;22.15;11.98;;;5.40;85.20;;;;;;5137209;27;20214;-57
2021/12/20 04:43:27;;;;;;;23.85;13.07;;;5.40;85.00;;;;;;5137196;27;20201;-56
2021/12/20 04:45:54;;;;;;;21.98;12.30;;;5.40;84.50;;;;;;5137040;27;20194;-56
2021/12/20 04:48:21;;;;;;;22.00;12.27;;;5.20;84.30;;;;;;5137200;27;20209;-56
2021/12/20 04:50:49;;;;;;;27.83;13.20;;;5.00;84.20;;;;;;5135528;27;20234;-58
2021/12/20 04:53:16;;;;;;;18.60;11.50;;;4.90;85.00;;;;;;5136833;27;20600;-58
2021/12/20 04:55:44;;;;;;;30.15;12.25;;;5.00;85.70;;;;;;5136931;27;20202;-56
2021/12/20 04:58:11;;;;;;;22.23;10.90;;;5.10;85.70;;;;;;5136899;27;20199;-56
2021/12/20 05:00:40;;;;;;;20.35;10.10;;;5.10;85.40;;;;;;5136987;27;20211;-62
2021/12/20 05:03:08;;;;;;;14.90;8.30;;;5.10;84.50;;;;;;5136821;27;20388;-57
2021/12/20 05:05:36;;;;;;;16.13;9.77;;;5.10;85.20;;;;;;5135433;27;20199;-56
2021/12/20 05:08:04;;;;;;;15.05;9.25;;;5.10;85.00;;;;;;5136541;27;20209;-56
2021/12/20 05:10:34;;;;;;;16.67;9.77;;;5.20;85.30;;;;;;5136638;27;20564;-57
2021/12/20 05:13:04;;;;;;;15.60;8.77;;;5.30;85.10;;;;;;5136449;27;20663;-59
2021/12/20 05:15:32;;;;;;;17.95;9.23;;;5.30;84.90;;;;;;5136508;27;20203;-59
2021/12/20 05:17:59;;;;;;;13.75;8.55;;;5.40;84.80;;;;;;5136578;27;20206;-61
2021/12/20 05:20:26;;;;;;;15.07;8.90;;;5.40;84.30;;;;;;5135081;27;20294;-58
2021/12/20 05:22:54;;;;;;;16.77;9.63;;;5.40;84.00;;;;;;5136019;27;20203;-58
2021/12/20 05:25:21;;;;;;;16.40;9.40;;;5.40;84.50;;;;;;5136374;27;20209;-58
2021/12/20 05:27:48;;;;;;;17.63;9.95;;;5.40;84.10;;;;;;5136508;27;20289;-59
2021/12/20 05:30:17;;;;;;;16.85;8.82;;;5.30;84.50;;;;;;5136510;27;20203;-58
2021/12/20 05:32:44;;;;;;;14.43;8.55;;;5.30;84.50;;;;;;5136169;27;20333;-59
2021/12/20 05:35:13;;;;;;;16.85;8.60;;;5.20;83.80;;;;;;5134815;27;20317;-58
2021/12/20 05:37:40;;;;;;;13.50;8.60;;;5.10;84.00;;;;;;5136194;27;20289;-58
2021/12/20 05:40:10;;;;;;;15.32;9.10;;;5.00;84.60;;;;;;5136184;27;20205;-61
2021/12/20 05:42:37;;;;;;;16.17;9.35;;;5.10;85.10;;;;;;5136101;27;20213;-56
2021/12/20 05:45:05;;;;;;;12.20;8.55;;;5.10;84.80;;;;;;5136087;27;20221;-58
2021/12/20 05:47:33;;;;;;;14.75;9.00;;;5.10;84.40;;;;;;5135979;27;20571;-60
2021/12/20 05:50:00;;;;;;;16.20;8.38;;;5.20;85.10;;;;;;5134470;27;20241;-57
2021/12/20 05:52:27;;;;;;;16.42;9.70;;;5.30;85.10;;;;;;5135704;27;20222;-59
2021/12/20 05:54:54;;;;;;;16.30;8.75;;;5.40;85.00;;;;;;5135773;27;20715;-62
2021/12/20 05:57:21;;;;;;;16.50;9.65;;;5.50;84.80;;;;;;5135748;27;20726;-58
2021/12/20 05:59:48;;;;;;;17.20;9.55;;;5.50;84.60;;;;;;5135827;27;20227;-58
2021/12/20 06:02:14;;;;;;;17.15;9.85;;;5.60;84.40;;;;;;5135545;27;20213;-58
2021/12/20 06:04:43;;;;;;;19.17;10.38;;;5.50;83.20;;;;;;5134359;27;20207;-58
2021/12/20 06:07:10;;;;;;;19.73;10.27;;;5.40;83.30;;;;;;5135518;27;20230;-58
2021/12/20 06:09:36;;;;;;;16.50;9.32;;;5.40;84.00;;;;;;5135596;27;20230;-57
2021/12/20 06:12:04;;;;;;;17.65;9.77;;;5.40;84.20;;;;;;5135523;27;20209;-61
2021/12/20 06:14:31;;;;;;;20.08;10.50;;;5.40;84.60;;;;;;5135229;27;20707;-59
2021/12/20 06:16:59;;;;;;;15.73;10.02;;;5.40;84.60;;;;;;5135335;27;20574;-58
2021/12/20 06:19:27;;;;;;;22.13;10.80;;;5.50;84.70;;;;;;5133935;27;20203;-61
2021/12/20 06:21:56;;;;;;;18.13;10.63;;;5.50;84.40;;;;;;5135346;27;20624;-58
2021/12/20 06:24:23;;;;;;;21.35;11.48;;;5.40;83.60;;;;;;5135295;27;20240;-57
2021/12/20 06:26:50;;;;;;;19.13;10.65;;;5.40;84.30;;;;;;5135247;27;20233;-57
2021/12/20 06:29:17;;;;;;;17.73;11.05;;;5.50;84.20;;;;;;5134933;27;20215;-56
2021/12/20 06:31:45;;;;;;;22.15;11.48;;;5.50;84.30;;;;;;5135081;27;20199;-57
2021/12/20 06:34:12;;;;;;;17.35;11.00;;;5.50;84.30;;;;;;5132681;27;20588;-60
2021/12/20 06:36:38;;;;;;;20.15;11.10;;;5.50;84.40;;;;;;5134977;27;20298;-57
2021/12/20 06:39:07;;;;;;;21.73;11.55;;;5.50;84.20;;;;;;5134907;27;20572;-57
2021/12/20 06:41:34;;;;;;;19.42;10.18;;;5.50;84.50;;;;;;5134783;27;20203;-59
2021/12/20 06:44:04;;;;;;;21.38;10.43;;;5.60;84.50;;;;;;5134710;27;20289;-60
2021/12/20 06:46:32;;;;;;;25.05;11.48;;;5.50;83.90;;;;;;5134826;27;20198;-58
2021/12/20 06:48:59;;;;;;;20.77;11.05;;;5.50;84.20;;;;;;5133502;27;20538;-58
2021/12/20 06:51:26;;;;;;;18.33;9.82;;;5.50;84.30;;;;;;5134493;27;20287;-58
2021/12/20 06:53:55;;;;;;;16.42;9.20;;;5.60;84.40;;;;;;5134564;27;20317;-58
2021/12/20 06:56:23;;;;;;;20.90;11.23;;;5.50;83.70;;;;;;5134602;27;20199;-58
2021/12/20 06:58:53;;;;;;;16.35;9.23;;;5.40;83.50;;;;;;5134569;27;20195;-59
2021/12/20 07:01:20;;;;;;;22.08;10.52;;;5.30;84.10;;;;;;5134541;27;20199;-60
2021/12/20 07:03:47;;;;;;;20.52;12.07;;;5.20;84.40;;;;;;5133048;27;20202;-59
2021/12/20 07:06:14;;;;;;;21.50;12.90;;;5.00;85.30;;;;;;5134376;27;20209;-57
2021/12/20 07:08:41;;;;;;;26.90;12.75;;;5.00;85.60;;;;;;5134348;27;20294;-57
2021/12/20 07:11:09;;;;;;;24.75;12.82;;;5.10;85.80;;;;;;5134179;27;20216;-59
2021/12/20 07:13:38;;;;;;;22.17;11.77;;;5.20;85.80;;;;;;5134228;27;20219;-58
2021/12/20 07:16:05;;;;;;;18.38;11.52;;;5.30;85.50;;;;;;5134231;27;20289;-60
2021/12/20 07:18:32;;;;;;;23.17;12.48;;;5.40;85.00;;;;;;5133431;27;20202;-58
2021/12/20 07:20:59;;;;;;;25.73;13.18;;;5.30;84.40;;;;;;5134132;27;20693;-58
2021/12/20 07:23:26;;;;;;;20.95;12.43;;;5.30;84.80;;;;;;5134051;27;20400;-59
2021/12/20 07:25:53;;;;;;;21.88;11.70;;;5.20;85.30;;;;;;5134089;27;20205;-59
2021/12/20 07:28:20;;;;;;;20.90;13.18;;;5.30;85.40;;;;;;5133981;27;20226;-57
2021/12/20 07:30:49;;;;;;;23.58;13.07;;;5.20;84.60;;;;;;5134042;27;20202;-57
2021/12/20 07:33:17;;;;;;;25.92;13.60;;;5.20;85.40;;;;;;5133816;27;20225;-56
2021/12/20 07:35:44;;;;;;;26.25;13.52;;;5.20;85.20;;;;;;5132472;27;20198;-58
2021/12/20 07:38:13;;;;;;;22.40;12.07;;;5.30;85.30;;;;;;5133738;27;20203;-59
2021/12/20 07:40:44;;;;;;;24.67;13.18;;;5.20;85.30;;;;;;5133897;27;20194;-59
2021/12/20 07:43:11;;;;;;;24.67;13.43;;;5.20;85.40;;;;;;5133841;27;20217;-59
2021/12/20 07:45:38;;;;;;;25.10;13.10;;;5.00;85.80;;;;;;5133645;27;20198;-57
2021/12/20 07:48:06;;;;;;;20.80;12.55;;;5.00;86.30;;;;;;5133765;27;20209;-57
2021/12/20 07:50:33;;;;;;;25.55;13.45;;;5.10;86.50;;;;;;5132217;27;20241;-58
2021/12/20 07:53:00;;;;;;;23.83;12.85;;;5.20;86.20;;;;;;5133504;27;20218;-57
2021/12/20 07:55:27;;;;;;;21.52;11.50;;;5.30;86.30;;;;;;5133787;27;20206;-58
2021/12/20 07:57:55;;;;;;;25.17;13.60;;;5.40;86.20;;;;;;5133740;27;20282;-58
2021/12/20 08:00:22;;;;;;;23.13;12.18;;;5.40;85.70;;;;;;5133679;27;20203;-59
2021/12/20 08:02:49;;;;;;;24.80;12.55;;;5.50;86.00;;;;;;5133542;27;20209;-58
2021/12/20 08:05:19;;;;;;;28.58;14.00;;;5.50;85.80;;;;;;5132231;27;20289;-58
2021/12/20 08:07:48;;;;;;;26.00;13.43;;;5.50;85.50;;;;;;5133773;27;20198;-58
2021/12/20 08:10:17;;;;;;;23.75;13.23;;;5.50;86.00;;;;;;5133613;27;20282;-58
2021/12/20 08:12:44;;;;;;;26.02;13.55;;;5.60;86.00;;;;;;5133487;27;20199;-56
2021/12/20 08:15:11;;;;;;;24.27;13.65;;;5.60;85.70;;;;;;5133481;27;20237;-58
2021/12/20 08:17:38;;;;;;;22.92;12.60;;;5.70;85.40;;;;;;5133436;27;20234;-60
2021/12/20 08:20:05;;;;;;;23.15;12.77;;;5.70;85.50;;;;;;5132070;27;20203;-56
2021/12/20 08:22:34;;;;;;;24.73;13.10;;;5.80;85.40;;;;;;5133366;27;20282;-56
2021/12/20 08:25:01;;;;;;;29.92;14.48;;;5.90;85.20;;;;;;5133390;27;20206;-56
2021/12/20 08:27:29;;;;;;;24.40;13.43;;;5.90;84.80;;;;;;5133514;27;20209;-56
2021/12/20 08:29:56;;;;;;;29.30;14.93;;;5.90;84.70;;;;;;5133327;27;20297;-56
2021/12/20 08:32:23;;;;;;;26.40;14.65;;;6.00;84.50;;;;;;5133332;27;20230;-58
2021/12/20 08:34:50;;;;;;;28.27;13.32;;;6.00;84.50;;;;;;5131795;27;20567;-58
2021/12/20 08:37:17;;;;;;;27.90;15.10;;;6.00;84.50;;;;;;5133338;27;20199;-56
2021/12/20 08:39:45;;;;;;;29.33;14.00;;;6.10;84.40;;;;;;5133256;27;20249;-58
2021/12/20 08:42:12;;;;;;;24.23;14.10;;;6.10;84.10;;;;;;5133444;27;20202;-58
2021/12/20 08:44:39;;;;;;;28.50;14.25;;;6.10;84.10;;;;;;5133291;27;20285;-58
2021/12/20 08:47:06;;;;;;;27.90;14.13;;;6.10;84.10;;;;;;5133039;27;20285;-57
2021/12/20 08:49:33;;;;;;;30.83;13.82;;;6.20;84.00;;;;;;5131674;27;20230;-58
2021/12/20 08:52:00;;;;;;;24.02;13.48;;;6.20;84.00;;;;;;5133254;27;20240;-58
2021/12/20 08:54:29;;;;;;;25.58;14.40;;;6.20;84.00;;;;;;5133119;27;20234;-58
2021/12/20 08:56:57;;;;;;;25.33;13.43;;;6.20;83.70;;;;;;5133082;27;20222;-58
2021/12/20 08:59:25;;;;;;;25.60;14.13;;;6.20;83.60;;;;;;5136741;27;20560;-56
2021/12/20 09:01:52;;;;;;;26.83;13.88;;;6.10;83.40;;;;;;5136818;27;20199;-55
2021/12/20 09:04:19;;;;;;;25.23;13.50;;;6.10;84.00;;;;;;5135475;27;20806;-57
2021/12/20 09:06:48;;;;;;;27.58;13.68;;;6.10;84.10;;;;;;5136729;27;20199;-57
2021/12/20 09:09:16;;;;;;;26.02;13.70;;;6.10;84.10;;;;;;5136600;27;20198;-58
2021/12/20 09:11:44;;;;;;;34.13;16.63;;;6.20;84.10;;;;;;5136547;27;20210;-57
2021/12/20 09:14:12;;;;;;;25.38;14.48;;;6.10;83.80;;;;;;5136330;27;20704;-57
2021/12/20 09:16:39;;;;;;;29.63;15.40;;;6.10;83.70;;;;;;5136591;27;20234;-58
2021/12/20 09:19:06;;;;;;;30.58;14.90;;;6.00;84.20;;;;;;5135133;27;20290;-58
2021/12/20 09:21:34;;;;;;;30.70;15.98;;;6.00;84.40;;;;;;5136342;27;20198;-58
2021/12/20 09:24:01;;;;;;;31.35;14.85;;;6.00;84.20;;;;;;5136305;27;20202;-58
2021/12/20 09:26:28;;;;;;;36.47;17.60;;;6.00;84.40;;;;;;5136332;27;20298;-57
2021/12/20 09:28:54;;;;;;;30.27;16.23;;;6.10;84.50;;;;;;5136316;27;20285;-59
2021/12/20 09:31:23;;;;;;;33.72;16.25;;;6.10;84.00;;;;;;5136167;27;20252;-57
2021/12/20 09:33:50;;;;;;;29.25;15.45;;;6.10;83.60;;;;;;5134750;27;20569;-58
2021/12/20 09:36:16;;;;;;;33.70;16.38;;;6.10;83.90;;;;;;5136096;27;20253;-58
2021/12/20 09:38:43;;;;;;;29.42;14.65;;;6.10;83.80;;;;;;5136116;27;20203;-58
2021/12/20 09:41:28;;;;;;;29.58;15.73;;;6.20;84.20;;;;;;5135928;27;20202;-58
2021/12/20 09:43:56;;;;;;;31.65;15.23;;;6.30;84.00;;;;;;5135967;27;20221;-58
2021/12/20 09:46:26;;;;;;;25.95;14.90;;;6.30;83.50;;;;;;5135981;27;20275;-57
2021/12/20 09:48:53;;;;;;;29.48;15.38;;;6.30;83.60;;;;;;5134581;27;20688;-58
2021/12/20 09:51:21;;;;;;;27.80;15.07;;;6.30;83.80;;;;;;5135537;27;20629;-58
2021/12/20 09:53:48;;;;;;;31.60;15.77;;;6.40;83.70;;;;;;5135475;27;20222;-58
2021/12/20 09:56:15;;;;;;;28.40;15.32;;;6.40;83.60;;;;;;5135842;27;20195;-58
2021/12/20 09:58:43;;;;;;;27.70;15.00;;;6.40;83.00;;;;;;5135931;27;20206;-58
2021/12/20 10:01:13;;;;;;;28.67;14.77;;;6.30;82.80;;;;;;5135548;27;20728;-58
2021/12/20 10:03:44;;;;;;;28.60;15.30;;;6.30;82.60;;;;;;5134276;27;20198;-58
2021/12/20 10:06:11;;;;;;;27.40;13.32;;;6.00;83.70;;;;;;5135572;27;20464;-58
2021/12/20 10:08:48;;;;;;;21.80;12.13;;;6.00;84.00;;;;;;5135517;27;20313;-58
2021/12/20 10:11:20;;;;;;;24.52;13.07;;;6.00;84.40;;;;;;5135360;27;20198;-58
2021/12/20 10:13:47;;;;;;;26.92;12.25;;;6.10;84.00;;;;;;5135371;27;20209;-57
2021/12/20 10:16:16;;;;;;;22.50;12.25;;;6.30;84.20;;;;;;5135327;27;20202;-57
2021/12/20 10:18:44;;;;;;;25.75;12.10;;;6.40;83.60;;;;;;5133838;27;20285;-58
2021/12/20 10:21:11;;;;;;;21.08;11.45;;;6.60;84.10;;;;;;5135268;27;20285;-58
2021/12/20 10:23:40;;;;;;;23.90;10.80;;;6.60;83.20;;;;;;5135260;27;20621;-58
2021/12/20 10:26:13;;;;;;;20.17;11.60;;;6.60;83.10;;;;;;5135299;27;20234;-57
2021/12/20 10:28:43;;;;;;;19.40;11.60;;;6.70;83.20;;;;;;5135061;27;20199;-57
2021/12/20 10:31:12;;;;;;;19.00;10.82;;;6.80;82.00;;;;;;5135126;27;20207;-58
2021/12/20 10:33:39;;;;;;;19.27;11.52;;;6.50;81.40;;;;;;5133523;27;20237;-58
2021/12/20 10:36:10;;;;;;;21.33;12.20;;;6.50;82.20;;;;;;5134861;27;20282;-58
2021/12/20 10:38:39;;;;;;;19.17;10.60;;;6.30;82.70;;;;;;5134996;27;20677;-58
2021/12/20 10:41:07;;;;;;;17.15;10.27;;;6.20;82.20;;;;;;5134876;27;20198;-58
2021/12/20 10:43:37;;;;;;;19.63;10.93;;;6.30;81.90;;;;;;5134750;27;20716;-57
2021/12/20 10:46:14;;;;;;;20.52;12.02;;;6.20;82.40;;;;;;5134626;27;20230;-57
2021/12/20 10:48:41;;;;;;;15.63;9.20;;;6.20;82.30;;;;;;5133223;27;20281;-56
2021/12/20 10:51:19;;;;;;;18.73;11.55;;;6.30;82.30;;;;;;5134371;27;20329;-59
2021/12/20 10:53:48;;;;;;;17.27;10.43;;;6.20;80.30;;;;;;5134572;27;20199;-58
2021/12/20 10:56:15;;;;;;;21.30;11.68;;;6.10;79.70;;;;;;5134611;27;20202;-58
2021/12/20 10:58:42;;;;;;;18.75;10.77;;;5.90;80.40;;;;;;5134966;27;20245;-58
2021/12/20 11:01:22;;;;;;;13.48;10.00;;;5.90;81.70;;;;;;5134760;27;20305;-56
2021/12/20 11:04:03;;;;;;;14.30;10.50;;;6.10;81.30;;;;;;5134184;27;20203;-57
2021/12/20 11:06:45;;;;;;;16.75;10.07;;;6.30;80.90;;;;;;5134383;27;20204;-57
2021/12/20 11:09:14;;;;;;;12.05;8.48;;;6.30;80.60;;;;;;5134402;27;20612;-58
2021/12/20 11:11:49;;;;;;;13.32;9.07;;;6.30;80.10;;;;;;5134325;27;20198;-58
2021/12/20 11:14:18;;;;;;;14.82;10.77;;;6.40;79.00;;;;;;5134267;27;20316;-56
2021/12/20 11:16:46;;;;;;;15.55;10.30;;;6.60;78.70;;;;;;5134205;27;20205;-59
2021/12/20 11:19:19;;;;;;;16.40;9.27;;;7.60;79.30;;;;;;5132859;27;20199;-58
2021/12/20 11:21:54;;;;;;;13.88;10.52;;;8.80;73.70;;;;;;5133796;27;20225;-58
2021/12/20 11:24:23;;;;;;;16.80;11.60;;;9.90;73.70;;;;;;5134278;27;20202;-60
2021/12/20 11:26:51;;;;;;;16.98;12.23;;;11.00;70.30;;;;;;5134146;27;20209;-58
2021/12/20 11:29:18;;;;;;;17.42;12.75;;;11.30;68.90;;;;;;5134115;27;20212;-59
2021/12/20 11:31:46;;;;;;;14.70;13.15;;;11.40;69.40;;;;;;5133988;27;20285;-59
2021/12/20 11:34:14;;;;;;;14.20;11.57;;;12.20;69.00;;;;;;5132765;27;20335;-61
2021/12/20 11:36:42;;;;;;;13.23;11.30;;;13.00;63.90;;;;;;5134202;27;20203;-59
2021/12/20 11:39:10;;;;;;;17.60;12.07;;;13.00;63.40;;;;;;5134004;27;20203;-59
2021/12/20 11:41:38;;;;;;;12.82;11.48;;;12.80;65.00;;;;;;5133948;27;20209;-58
2021/12/20 11:44:07;;;;;;;14.77;12.13;;;12.50;64.70;;;;;;5133856;27;20753;-58
2021/12/20 11:46:42;;;;;;;13.38;10.93;;;12.10;66.40;;;;;;5133808;27;20271;-58
2021/12/20 11:49:09;;;;;;;15.00;13.40;;;11.60;65.40;;;;;;5132396;27;20539;-59
2021/12/20 11:52:06;;;;;;;15.15;13.15;;;10.70;64.10;;;;;;5133720;27;20226;-57
2021/12/20 11:54:37;;;;;;;13.25;11.90;;;10.30;69.00;;;;;;5133653;27;20218;-58
2021/12/20 11:57:05;;;;;;;12.70;11.30;;;11.50;64.60;;;;;;5133801;27;20285;-60
2021/12/20 11:59:49;;;;;;;11.48;9.90;;;12.80;64.30;;;;;;5133793;27;20205;-61
2021/12/20 12:02:22;;;;;;;11.57;10.40;;;14.10;59.20;;;;;;5133858;27;20205;-61
2021/12/20 12:05:01;;;;;;;14.75;13.20;;;13.80;59.90;;;;;;5132402;27;20205;-59
2021/12/20 12:07:31;;;;;;;12.60;11.30;;;13.20;60.40;;;;;;5133599;27;20740;-59
2021/12/20 12:10:01;;;;;;;13.80;12.23;;;12.50;62.10;;;;;;5133677;27;20281;-58
2021/12/20 12:12:30;;;;;;;12.95;11.70;;;11.60;61.70;;;;;;5133542;27;20205;-58
2021/12/20 12:15:04;;;;;;;13.32;12.10;;;11.00;65.10;;;;;;5133482;27;20318;-57
2021/12/20 12:17:58;;;;;;;14.20;12.75;;;10.60;65.60;;;;;;5133558;27;20203;-58
2021/12/20 12:20:48;;;;;;;12.45;11.32;;;9.80;66.00;;;;;;5132188;27;20202;-59
2021/12/20 12:23:20;;;;;;;15.23;12.82;;;9.20;67.40;;;;;;5133486;27;20198;-57
2021/12/20 12:25:50;;;;;;;15.68;11.40;;;8.70;68.90;;;;;;5133494;27;20282;-58
2021/12/20 12:28:20;;;;;;;21.42;15.25;;;8.30;70.20;;;;;;5133332;27;20213;-60
2021/12/20 12:30:58;;;;;;;17.70;14.00;;;8.10;71.20;;;;;;5133398;27;20293;-59
2021/12/20 12:33:31;;;;;;;20.08;14.95;;;8.00;71.60;;;;;;5135967;27;20622;-58
2021/12/20 12:36:07;;;;;;;24.58;15.98;;;7.90;71.90;;;;;;5136842;27;20443;-59
2021/12/20 12:38:36;;;;;;;20.20;15.15;;;7.70;73.10;;;;;;5137154;27;20209;-57
2021/12/20 12:41:16;;;;;;;18.25;14.45;;;7.50;73.40;;;;;;5137283;27;20537;-59
2021/12/20 12:43:52;;;;;;;23.48;14.23;;;7.30;74.40;;;;;;5137184;27;20205;-58
2021/12/20 12:46:48;;;;;;;21.73;14.05;;;7.10;75.80;;;;;;5137138;27;20202;-58
2021/12/20 12:49:39;;;;;;;19.38;14.20;;;7.00;75.40;;;;;;5135512;27;20229;-58
2021/12/20 12:52:11;;;;;;;19.83;14.95;;;7.10;75.40;;;;;;5136978;27;20209;-58
2021/12/20 12:54:43;;;;;;;25.20;15.18;;;7.00;75.70;;;;;;5136871;27;20317;-58